sensor_id;sensor_type;location;lat;lon;timestamp;P1;durP1;ratioP1;P2;durP2;ratioP2
10389;SDS011;5241;47.830;12.972;2024-01-11T00:00:34;57.67;;;15.13;;
10389;SDS011;5241;47.830;12.972;2024-01-11T00:03:00;54.87;;;16.27;;
10389;SDS011;5241;47.830;12.972;2024-01-11T00:05:25;43.43;;;15.50;;
10389;SDS011;5241;47.830;12.972;2024-01-11T00:07:51;71.87;;;17.47;;
10389;SDS011;5241;47.830;12.972;2024-01-11T00:10:17;58.00;;;16.13;;
10389;SDS011;5241;47.830;12.972;2024-01-11T00:12:43;57.50;;;15.20;;
10389;SDS011;5241;47.830;12.972;2024-01-11T00:15:09;59.27;;;15.80;;
10389;SDS011;5241;47.830;12.972;2024-01-11T00:17:34;42.33;;;16.50;;
10389;SDS011;5241;47.830;12.972;2024-01-11T00:20:00;46.40;;;14.67;;
10389;SDS011;5241;47.830;12.972;2024-01-11T00:22:26;52.17;;;15.80;;
10389;SDS011;5241;47.830;12.972;2024-01-11T00:24:52;56.67;;;14.83;;
10389;SDS011;5241;47.830;12.972;2024-01-11T00:27:17;52.73;;;14.60;;
10389;SDS011;5241;47.830;12.972;2024-01-11T00:29:43;48.33;;;14.83;;
10389;SDS011;5241;47.830;12.972;2024-01-11T00:32:09;56.73;;;15.00;;
10389;SDS011;5241;47.830;12.972;2024-01-11T00:34:35;40.07;;;15.43;;
10389;SDS011;5241;47.830;12.972;2024-01-11T00:37:01;54.97;;;15.00;;
10389;SDS011;5241;47.830;12.972;2024-01-11T00:39:27;44.10;;;12.77;;
10389;SDS011;5241;47.830;12.972;2024-01-11T00:41:52;48.53;;;15.20;;
10389;SDS011;5241;47.830;12.972;2024-01-11T00:44:18;42.27;;;15.27;;
10389;SDS011;5241;47.830;12.972;2024-01-11T00:46:43;53.53;;;16.77;;
10389;SDS011;5241;47.830;12.972;2024-01-11T00:49:09;51.27;;;16.40;;
10389;SDS011;5241;47.830;12.972;2024-01-11T00:51:35;45.53;;;15.50;;
10389;SDS011;5241;47.830;12.972;2024-01-11T00:54:01;49.30;;;15.50;;
10389;SDS011;5241;47.830;12.972;2024-01-11T00:56:26;44.97;;;15.43;;
10389;SDS011;5241;47.830;12.972;2024-01-11T00:58:52;46.70;;;16.03;;
10389;SDS011;5241;47.830;12.972;2024-01-11T01:01:17;45.67;;;14.93;;
10389;SDS011;5241;47.830;12.972;2024-01-11T01:03:43;54.60;;;14.00;;
10389;SDS011;5241;47.830;12.972;2024-01-11T01:06:09;49.50;;;14.67;;
10389;SDS011;5241;47.830;12.972;2024-01-11T01:08:34;49.10;;;14.67;;
10389;SDS011;5241;47.830;12.972;2024-01-11T01:11:00;43.43;;;15.10;;
10389;SDS011;5241;47.830;12.972;2024-01-11T01:13:26;37.63;;;12.53;;
10389;SDS011;5241;47.830;12.972;2024-01-11T01:15:51;40.63;;;12.93;;
10389;SDS011;5241;47.830;12.972;2024-01-11T01:18:17;38.13;;;14.87;;
10389;SDS011;5241;47.830;12.972;2024-01-11T01:20:42;37.93;;;14.63;;
10389;SDS011;5241;47.830;12.972;2024-01-11T01:23:08;42.43;;;12.10;;
10389;SDS011;5241;47.830;12.972;2024-01-11T01:25:33;34.30;;;12.70;;
10389;SDS011;5241;47.830;12.972;2024-01-11T01:27:59;46.57;;;11.70;;
10389;SDS011;5241;47.830;12.972;2024-01-11T01:30:26;36.73;;;12.90;;
10389;SDS011;5241;47.830;12.972;2024-01-11T01:32:52;38.33;;;12.63;;
10389;SDS011;5241;47.830;12.972;2024-01-11T01:35:18;41.67;;;14.90;;
10389;SDS011;5241;47.830;12.972;2024-01-11T01:37:43;34.97;;;11.47;;
10389;SDS011;5241;47.830;12.972;2024-01-11T01:40:10;42.20;;;12.80;;
10389;SDS011;5241;47.830;12.972;2024-01-11T01:42:40;44.90;;;15.77;;
10389;SDS011;5241;47.830;12.972;2024-01-11T01:45:10;32.97;;;13.27;;
10389;SDS011;5241;47.830;12.972;2024-01-11T01:47:36;48.73;;;14.13;;
10389;SDS011;5241;47.830;12.972;2024-01-11T01:50:03;46.20;;;13.63;;
10389;SDS011;5241;47.830;12.972;2024-01-11T01:52:29;39.43;;;14.33;;
10389;SDS011;5241;47.830;12.972;2024-01-11T01:54:57;35.10;;;13.90;;
10389;SDS011;5241;47.830;12.972;2024-01-11T01:57:23;43.00;;;15.13;;
10389;SDS011;5241;47.830;12.972;2024-01-11T01:59:50;37.13;;;13.50;;
10389;SDS011;5241;47.830;12.972;2024-01-11T02:02:20;41.00;;;13.97;;
10389;SDS011;5241;47.830;12.972;2024-01-11T02:04:46;37.03;;;11.97;;
10389;SDS011;5241;47.830;12.972;2024-01-11T02:07:11;35.03;;;13.53;;
10389;SDS011;5241;47.830;12.972;2024-01-11T02:09:38;46.17;;;15.60;;
10389;SDS011;5241;47.830;12.972;2024-01-11T02:12:05;37.03;;;13.47;;
10389;SDS011;5241;47.830;12.972;2024-01-11T02:14:31;47.53;;;13.03;;
10389;SDS011;5241;47.830;12.972;2024-01-11T02:16:57;37.53;;;14.13;;
10389;SDS011;5241;47.830;12.972;2024-01-11T02:19:22;48.03;;;15.07;;
10389;SDS011;5241;47.830;12.972;2024-01-11T02:21:49;39.83;;;13.53;;
10389;SDS011;5241;47.830;12.972;2024-01-11T02:24:19;40.13;;;13.27;;
10389;SDS011;5241;47.830;12.972;2024-01-11T02:26:58;43.20;;;14.93;;
10389;SDS011;5241;47.830;12.972;2024-01-11T02:29:25;46.03;;;13.30;;
10389;SDS011;5241;47.830;12.972;2024-01-11T02:31:51;36.30;;;14.27;;
10389;SDS011;5241;47.830;12.972;2024-01-11T02:34:17;43.80;;;13.97;;
10389;SDS011;5241;47.830;12.972;2024-01-11T02:36:43;40.47;;;14.53;;
10389;SDS011;5241;47.830;12.972;2024-01-11T02:39:09;53.37;;;15.63;;
10389;SDS011;5241;47.830;12.972;2024-01-11T02:41:35;43.13;;;13.17;;
10389;SDS011;5241;47.830;12.972;2024-01-11T02:44:02;45.90;;;15.50;;
10389;SDS011;5241;47.830;12.972;2024-01-11T02:46:28;43.23;;;14.77;;
10389;SDS011;5241;47.830;12.972;2024-01-11T02:48:53;38.67;;;14.83;;
10389;SDS011;5241;47.830;12.972;2024-01-11T02:51:19;46.90;;;15.50;;
10389;SDS011;5241;47.830;12.972;2024-01-11T02:53:44;46.73;;;14.70;;
10389;SDS011;5241;47.830;12.972;2024-01-11T02:56:10;49.60;;;13.93;;
10389;SDS011;5241;47.830;12.972;2024-01-11T02:58:35;50.47;;;14.80;;
10389;SDS011;5241;47.830;12.972;2024-01-11T03:01:01;50.37;;;12.97;;
10389;SDS011;5241;47.830;12.972;2024-01-11T03:03:26;38.47;;;14.20;;
10389;SDS011;5241;47.830;12.972;2024-01-11T03:05:52;49.73;;;14.73;;
10389;SDS011;5241;47.830;12.972;2024-01-11T03:08:18;42.00;;;15.47;;
10389;SDS011;5241;47.830;12.972;2024-01-11T03:10:43;44.10;;;13.60;;
10389;SDS011;5241;47.830;12.972;2024-01-11T03:13:09;46.53;;;15.10;;
10389;SDS011;5241;47.830;12.972;2024-01-11T03:15:34;40.67;;;13.07;;
10389;SDS011;5241;47.830;12.972;2024-01-11T03:18:00;56.37;;;16.10;;
10389;SDS011;5241;47.830;12.972;2024-01-11T03:20:25;35.83;;;12.20;;
10389;SDS011;5241;47.830;12.972;2024-01-11T03:22:51;40.10;;;13.23;;
10389;SDS011;5241;47.830;12.972;2024-01-11T03:25:17;47.07;;;15.37;;
10389;SDS011;5241;47.830;12.972;2024-01-11T03:27:43;44.30;;;15.33;;
10389;SDS011;5241;47.830;12.972;2024-01-11T03:30:08;43.97;;;10.67;;
10389;SDS011;5241;47.830;12.972;2024-01-11T03:32:34;38.87;;;12.17;;
10389;SDS011;5241;47.830;12.972;2024-01-11T03:35:00;42.07;;;13.67;;
10389;SDS011;5241;47.830;12.972;2024-01-11T03:37:25;38.70;;;12.87;;
10389;SDS011;5241;47.830;12.972;2024-01-11T03:39:51;56.23;;;12.43;;
10389;SDS011;5241;47.830;12.972;2024-01-11T03:42:16;38.80;;;13.93;;
10389;SDS011;5241;47.830;12.972;2024-01-11T03:44:42;44.30;;;13.13;;
10389;SDS011;5241;47.830;12.972;2024-01-11T03:47:07;28.70;;;12.07;;
10389;SDS011;5241;47.830;12.972;2024-01-11T03:49:33;43.13;;;11.37;;
10389;SDS011;5241;47.830;12.972;2024-01-11T03:51:59;31.47;;;11.37;;
10389;SDS011;5241;47.830;12.972;2024-01-11T03:54:24;38.27;;;12.30;;
10389;SDS011;5241;47.830;12.972;2024-01-11T03:56:50;38.10;;;10.90;;
10389;SDS011;5241;47.830;12.972;2024-01-11T03:59:15;48.40;;;11.97;;
10389;SDS011;5241;47.830;12.972;2024-01-11T04:01:41;34.80;;;10.57;;
10389;SDS011;5241;47.830;12.972;2024-01-11T04:04:07;33.43;;;10.13;;
10389;SDS011;5241;47.830;12.972;2024-01-11T04:06:33;37.73;;;12.53;;
10389;SDS011;5241;47.830;12.972;2024-01-11T04:08:59;36.37;;;12.03;;
10389;SDS011;5241;47.830;12.972;2024-01-11T04:11:27;30.43;;;10.10;;
10389;SDS011;5241;47.830;12.972;2024-01-11T04:13:53;40.07;;;11.23;;
10389;SDS011;5241;47.830;12.972;2024-01-11T04:16:20;34.93;;;10.77;;
10389;SDS011;5241;47.830;12.972;2024-01-11T04:18:46;40.30;;;10.93;;
10389;SDS011;5241;47.830;12.972;2024-01-11T04:21:24;37.90;;;11.07;;
10389;SDS011;5241;47.830;12.972;2024-01-11T04:23:54;26.57;;;10.63;;
10389;SDS011;5241;47.830;12.972;2024-01-11T04:26:20;39.37;;;10.97;;
10389;SDS011;5241;47.830;12.972;2024-01-11T04:28:46;20.77;;;8.30;;
10389;SDS011;5241;47.830;12.972;2024-01-11T04:31:12;36.57;;;10.60;;
10389;SDS011;5241;47.830;12.972;2024-01-11T04:33:41;34.07;;;12.33;;
10389;SDS011;5241;47.830;12.972;2024-01-11T04:36:11;27.33;;;9.73;;
10389;SDS011;5241;47.830;12.972;2024-01-11T04:38:38;30.57;;;11.03;;
10389;SDS011;5241;47.830;12.972;2024-01-11T04:43:39;41.77;;;13.23;;
10389;SDS011;5241;47.830;12.972;2024-01-11T04:46:22;41.37;;;12.33;;
10389;SDS011;5241;47.830;12.972;2024-01-11T04:48:48;37.63;;;12.80;;
10389;SDS011;5241;47.830;12.972;2024-01-11T04:51:15;40.13;;;13.23;;
10389;SDS011;5241;47.830;12.972;2024-01-11T04:53:42;42.87;;;15.37;;
10389;SDS011;5241;47.830;12.972;2024-01-11T04:56:09;37.13;;;13.83;;
10389;SDS011;5241;47.830;12.972;2024-01-11T04:58:36;38.77;;;12.47;;
10389;SDS011;5241;47.830;12.972;2024-01-11T05:01:06;38.60;;;12.27;;
10389;SDS011;5241;47.830;12.972;2024-01-11T05:03:32;48.43;;;15.07;;
10389;SDS011;5241;47.830;12.972;2024-01-11T05:05:58;30.83;;;11.97;;
10389;SDS011;5241;47.830;12.972;2024-01-11T05:08:25;42.93;;;13.07;;
10389;SDS011;5241;47.830;12.972;2024-01-11T05:10:51;35.43;;;12.47;;
10389;SDS011;5241;47.830;12.972;2024-01-11T05:13:17;40.90;;;14.47;;
10389;SDS011;5241;47.830;12.972;2024-01-11T05:15:43;52.67;;;14.17;;
10389;SDS011;5241;47.830;12.972;2024-01-11T05:18:09;34.03;;;12.40;;
10389;SDS011;5241;47.830;12.972;2024-01-11T05:20:35;31.90;;;10.20;;
10389;SDS011;5241;47.830;12.972;2024-01-11T05:23:01;34.33;;;12.77;;
10389;SDS011;5241;47.830;12.972;2024-01-11T05:25:26;36.00;;;10.53;;
10389;SDS011;5241;47.830;12.972;2024-01-11T05:27:52;34.30;;;12.60;;
10389;SDS011;5241;47.830;12.972;2024-01-11T05:30:18;32.13;;;10.73;;
10389;SDS011;5241;47.830;12.972;2024-01-11T05:32:43;38.03;;;11.90;;
10389;SDS011;5241;47.830;12.972;2024-01-11T05:35:09;37.00;;;11.47;;
10389;SDS011;5241;47.830;12.972;2024-01-11T05:37:35;35.70;;;13.77;;
10389;SDS011;5241;47.830;12.972;2024-01-11T05:40:01;41.03;;;12.33;;
10389;SDS011;5241;47.830;12.972;2024-01-11T05:42:26;39.33;;;12.77;;
10389;SDS011;5241;47.830;12.972;2024-01-11T05:44:52;33.23;;;11.83;;
10389;SDS011;5241;47.830;12.972;2024-01-11T05:47:18;39.87;;;12.70;;
10389;SDS011;5241;47.830;12.972;2024-01-11T05:49:43;32.77;;;12.53;;
10389;SDS011;5241;47.830;12.972;2024-01-11T05:52:10;41.47;;;13.50;;
10389;SDS011;5241;47.830;12.972;2024-01-11T05:54:35;40.10;;;11.97;;
10389;SDS011;5241;47.830;12.972;2024-01-11T05:57:01;43.43;;;12.00;;
10389;SDS011;5241;47.830;12.972;2024-01-11T05:59:27;42.03;;;13.23;;
10389;SDS011;5241;47.830;12.972;2024-01-11T06:01:52;34.60;;;12.23;;
10389;SDS011;5241;47.830;12.972;2024-01-11T06:04:18;31.37;;;12.57;;
10389;SDS011;5241;47.830;12.972;2024-01-11T06:06:43;34.97;;;12.03;;
10389;SDS011;5241;47.830;12.972;2024-01-11T06:09:09;29.67;;;11.33;;
10389;SDS011;5241;47.830;12.972;2024-01-11T06:11:35;41.40;;;13.80;;
10389;SDS011;5241;47.830;12.972;2024-01-11T06:14:00;32.43;;;11.47;;
10389;SDS011;5241;47.830;12.972;2024-01-11T06:16:27;33.33;;;13.23;;
10389;SDS011;5241;47.830;12.972;2024-01-11T06:18:53;34.77;;;10.73;;
10389;SDS011;5241;47.830;12.972;2024-01-11T06:21:18;39.77;;;11.40;;
10389;SDS011;5241;47.830;12.972;2024-01-11T06:23:44;41.53;;;12.63;;
10389;SDS011;5241;47.830;12.972;2024-01-11T06:26:10;28.43;;;10.83;;
10389;SDS011;5241;47.830;12.972;2024-01-11T06:28:35;32.60;;;9.83;;
10389;SDS011;5241;47.830;12.972;2024-01-11T06:31:01;21.97;;;9.30;;
10389;SDS011;5241;47.830;12.972;2024-01-11T06:33:27;27.67;;;10.13;;
10389;SDS011;5241;47.830;12.972;2024-01-11T06:35:53;27.47;;;10.93;;
10389;SDS011;5241;47.830;12.972;2024-01-11T06:38:19;27.40;;;9.70;;
10389;SDS011;5241;47.830;12.972;2024-01-11T06:40:44;35.97;;;9.73;;
10389;SDS011;5241;47.830;12.972;2024-01-11T06:43:10;38.47;;;10.57;;
10389;SDS011;5241;47.830;12.972;2024-01-11T06:45:36;26.43;;;9.70;;
10389;SDS011;5241;47.830;12.972;2024-01-11T06:48:01;36.43;;;10.17;;
10389;SDS011;5241;47.830;12.972;2024-01-11T06:50:27;41.10;;;12.23;;
10389;SDS011;5241;47.830;12.972;2024-01-11T06:52:53;28.47;;;12.60;;
10389;SDS011;5241;47.830;12.972;2024-01-11T06:55:19;38.43;;;10.67;;
10389;SDS011;5241;47.830;12.972;2024-01-11T06:57:46;37.13;;;11.47;;
10389;SDS011;5241;47.830;12.972;2024-01-11T07:00:13;24.63;;;9.03;;
10389;SDS011;5241;47.830;12.972;2024-01-11T07:02:39;34.53;;;11.03;;
10389;SDS011;5241;47.830;12.972;2024-01-11T07:05:05;33.80;;;11.00;;
10389;SDS011;5241;47.830;12.972;2024-01-11T07:07:31;33.47;;;12.13;;
10389;SDS011;5241;47.830;12.972;2024-01-11T07:09:57;34.60;;;11.47;;
10389;SDS011;5241;47.830;12.972;2024-01-11T07:12:23;38.83;;;12.03;;
10389;SDS011;5241;47.830;12.972;2024-01-11T07:14:49;27.20;;;10.57;;
10389;SDS011;5241;47.830;12.972;2024-01-11T07:17:14;39.23;;;12.67;;
10389;SDS011;5241;47.830;12.972;2024-01-11T07:19:40;30.97;;;11.43;;
10389;SDS011;5241;47.830;12.972;2024-01-11T07:22:06;34.90;;;11.57;;
10389;SDS011;5241;47.830;12.972;2024-01-11T07:24:31;34.87;;;11.57;;
10389;SDS011;5241;47.830;12.972;2024-01-11T07:27:02;36.50;;;12.83;;
10389;SDS011;5241;47.830;12.972;2024-01-11T07:29:29;40.27;;;12.23;;
10389;SDS011;5241;47.830;12.972;2024-01-11T07:31:55;35.10;;;12.20;;
10389;SDS011;5241;47.830;12.972;2024-01-11T07:34:20;29.10;;;10.93;;
10389;SDS011;5241;47.830;12.972;2024-01-11T07:36:46;38.80;;;13.33;;
10389;SDS011;5241;47.830;12.972;2024-01-11T07:39:11;37.70;;;15.10;;
10389;SDS011;5241;47.830;12.972;2024-01-11T07:41:37;33.03;;;12.03;;
10389;SDS011;5241;47.830;12.972;2024-01-11T07:44:03;36.00;;;14.70;;
10389;SDS011;5241;47.830;12.972;2024-01-11T07:46:28;37.33;;;12.67;;
10389;SDS011;5241;47.830;12.972;2024-01-11T07:48:54;36.23;;;12.70;;
10389;SDS011;5241;47.830;12.972;2024-01-11T07:51:19;39.73;;;15.10;;
10389;SDS011;5241;47.830;12.972;2024-01-11T07:53:45;31.27;;;10.77;;
10389;SDS011;5241;47.830;12.972;2024-01-11T07:56:11;35.13;;;11.53;;
10389;SDS011;5241;47.830;12.972;2024-01-11T07:58:36;37.60;;;12.67;;
10389;SDS011;5241;47.830;12.972;2024-01-11T08:01:03;40.80;;;13.17;;
10389;SDS011;5241;47.830;12.972;2024-01-11T08:03:29;32.17;;;12.77;;
10389;SDS011;5241;47.830;12.972;2024-01-11T08:05:55;34.87;;;12.03;;
10389;SDS011;5241;47.830;12.972;2024-01-11T08:08:20;32.60;;;11.10;;
10389;SDS011;5241;47.830;12.972;2024-01-11T08:10:47;30.03;;;10.33;;
10389;SDS011;5241;47.830;12.972;2024-01-11T08:13:14;35.00;;;11.37;;
10389;SDS011;5241;47.830;12.972;2024-01-11T08:15:40;32.53;;;10.37;;
10389;SDS011;5241;47.830;12.972;2024-01-11T08:18:06;35.37;;;11.60;;
10389;SDS011;5241;47.830;12.972;2024-01-11T08:20:32;28.57;;;11.90;;
10389;SDS011;5241;47.830;12.972;2024-01-11T08:22:58;28.90;;;10.80;;
10389;SDS011;5241;47.830;12.972;2024-01-11T08:25:23;37.47;;;11.93;;
10389;SDS011;5241;47.830;12.972;2024-01-11T08:27:49;30.07;;;10.57;;
10389;SDS011;5241;47.830;12.972;2024-01-11T08:30:14;42.33;;;12.67;;
10389;SDS011;5241;47.830;12.972;2024-01-11T08:32:40;34.67;;;10.97;;
10389;SDS011;5241;47.830;12.972;2024-01-11T08:35:09;32.33;;;11.50;;
10389;SDS011;5241;47.830;12.972;2024-01-11T08:37:36;37.10;;;11.27;;
10389;SDS011;5241;47.830;12.972;2024-01-11T08:40:02;32.30;;;11.20;;
10389;SDS011;5241;47.830;12.972;2024-01-11T08:42:29;36.47;;;11.23;;
10389;SDS011;5241;47.830;12.972;2024-01-11T08:44:55;35.37;;;10.60;;
10389;SDS011;5241;47.830;12.972;2024-01-11T08:47:21;35.93;;;12.47;;
10389;SDS011;5241;47.830;12.972;2024-01-11T08:49:47;26.87;;;10.97;;
10389;SDS011;5241;47.830;12.972;2024-01-11T08:52:12;40.47;;;12.47;;
10389;SDS011;5241;47.830;12.972;2024-01-11T08:54:38;36.20;;;12.37;;
10389;SDS011;5241;47.830;12.972;2024-01-11T08:57:03;26.80;;;11.47;;
10389;SDS011;5241;47.830;12.972;2024-01-11T08:59:29;36.17;;;12.93;;
10389;SDS011;5241;47.830;12.972;2024-01-11T09:01:55;39.90;;;11.97;;
10389;SDS011;5241;47.830;12.972;2024-01-11T09:04:20;26.73;;;10.40;;
10389;SDS011;5241;47.830;12.972;2024-01-11T09:06:46;33.30;;;10.50;;
10389;SDS011;5241;47.830;12.972;2024-01-11T09:09:11;30.07;;;12.10;;
10389;SDS011;5241;47.830;12.972;2024-01-11T09:11:38;34.67;;;10.73;;
10389;SDS011;5241;47.830;12.972;2024-01-11T09:14:06;37.23;;;12.17;;
10389;SDS011;5241;47.830;12.972;2024-01-11T09:16:31;32.93;;;11.47;;
10389;SDS011;5241;47.830;12.972;2024-01-11T09:18:58;32.17;;;11.90;;
10389;SDS011;5241;47.830;12.972;2024-01-11T09:21:25;28.63;;;11.80;;
10389;SDS011;5241;47.830;12.972;2024-01-11T09:23:51;32.33;;;11.93;;
10389;SDS011;5241;47.830;12.972;2024-01-11T09:26:16;35.40;;;13.63;;
10389;SDS011;5241;47.830;12.972;2024-01-11T09:28:42;38.73;;;12.70;;
10389;SDS011;5241;47.830;12.972;2024-01-11T09:31:08;36.30;;;13.47;;
10389;SDS011;5241;47.830;12.972;2024-01-11T09:33:33;36.47;;;13.37;;
10389;SDS011;5241;47.830;12.972;2024-01-11T09:35:59;36.93;;;13.27;;
10389;SDS011;5241;47.830;12.972;2024-01-11T09:38:24;37.93;;;13.37;;
10389;SDS011;5241;47.830;12.972;2024-01-11T09:40:52;37.10;;;13.50;;
10389;SDS011;5241;47.830;12.972;2024-01-11T09:43:41;33.20;;;13.63;;
10389;SDS011;5241;47.830;12.972;2024-01-11T09:46:07;41.13;;;14.07;;
10389;SDS011;5241;47.830;12.972;2024-01-11T09:48:34;40.37;;;13.00;;
10389;SDS011;5241;47.830;12.972;2024-01-11T09:51:02;38.77;;;12.37;;
10389;SDS011;5241;47.830;12.972;2024-01-11T09:53:32;36.97;;;13.53;;
10389;SDS011;5241;47.830;12.972;2024-01-11T09:55:58;35.03;;;12.67;;
10389;SDS011;5241;47.830;12.972;2024-01-11T09:58:25;41.73;;;13.20;;
10389;SDS011;5241;47.830;12.972;2024-01-11T10:00:53;33.43;;;14.57;;
10389;SDS011;5241;47.830;12.972;2024-01-11T10:03:20;35.50;;;12.40;;
10389;SDS011;5241;47.830;12.972;2024-01-11T10:05:49;34.50;;;11.57;;
10389;SDS011;5241;47.830;12.972;2024-01-11T10:08:19;38.73;;;13.17;;
10389;SDS011;5241;47.830;12.972;2024-01-11T10:10:46;31.67;;;14.10;;
10389;SDS011;5241;47.830;12.972;2024-01-11T10:13:13;43.93;;;14.07;;
10389;SDS011;5241;47.830;12.972;2024-01-11T10:15:39;36.97;;;13.77;;
10389;SDS011;5241;47.830;12.972;2024-01-11T10:18:04;35.10;;;15.10;;
10389;SDS011;5241;47.830;12.972;2024-01-11T10:20:30;42.63;;;13.43;;
10389;SDS011;5241;47.830;12.972;2024-01-11T10:22:57;47.63;;;13.57;;
10389;SDS011;5241;47.830;12.972;2024-01-11T10:25:23;33.13;;;12.80;;
10389;SDS011;5241;47.830;12.972;2024-01-11T10:27:49;34.30;;;12.30;;
10389;SDS011;5241;47.830;12.972;2024-01-11T10:30:15;36.83;;;13.37;;
10389;SDS011;5241;47.830;12.972;2024-01-11T10:32:42;45.63;;;15.30;;
10389;SDS011;5241;47.830;12.972;2024-01-11T10:35:09;36.97;;;12.83;;
10389;SDS011;5241;47.830;12.972;2024-01-11T10:37:34;37.47;;;12.53;;
10389;SDS011;5241;47.830;12.972;2024-01-11T10:40:05;37.90;;;13.73;;
10389;SDS011;5241;47.830;12.972;2024-01-11T10:42:43;32.60;;;13.53;;
10389;SDS011;5241;47.830;12.972;2024-01-11T10:45:16;34.53;;;13.00;;
10389;SDS011;5241;47.830;12.972;2024-01-11T10:50:24;40.70;;;14.23;;
10389;SDS011;5241;47.830;12.972;2024-01-11T10:55:55;49.13;;;14.80;;
10389;SDS011;5241;47.830;12.972;2024-01-11T10:58:22;35.87;;;13.17;;
10389;SDS011;5241;47.830;12.972;2024-01-11T11:00:49;40.97;;;14.93;;
10389;SDS011;5241;47.830;12.972;2024-01-11T11:03:17;35.30;;;12.53;;
10389;SDS011;5241;47.830;12.972;2024-01-11T11:05:44;40.87;;;13.90;;
10389;SDS011;5241;47.830;12.972;2024-01-11T11:08:13;46.30;;;13.73;;
10389;SDS011;5241;47.830;12.972;2024-01-11T11:10:39;36.20;;;12.70;;
10389;SDS011;5241;47.830;12.972;2024-01-11T11:13:06;40.87;;;14.03;;
10389;SDS011;5241;47.830;12.972;2024-01-11T11:15:34;38.10;;;14.80;;
10389;SDS011;5241;47.830;12.972;2024-01-11T11:18:02;42.07;;;13.93;;
10389;SDS011;5241;47.830;12.972;2024-01-11T11:20:28;50.53;;;16.90;;
10389;SDS011;5241;47.830;12.972;2024-01-11T11:23:07;37.57;;;12.30;;
10389;SDS011;5241;47.830;12.972;2024-01-11T11:25:37;47.03;;;16.03;;
10389;SDS011;5241;47.830;12.972;2024-01-11T11:28:05;32.13;;;12.03;;
10389;SDS011;5241;47.830;12.972;2024-01-11T11:30:31;36.17;;;13.63;;
10389;SDS011;5241;47.830;12.972;2024-01-11T11:33:23;45.07;;;12.33;;
10389;SDS011;5241;47.830;12.972;2024-01-11T11:35:51;41.07;;;13.37;;
10389;SDS011;5241;47.830;12.972;2024-01-11T11:38:28;31.07;;;13.83;;
10389;SDS011;5241;47.830;12.972;2024-01-11T11:40:56;40.13;;;13.20;;
10389;SDS011;5241;47.830;12.972;2024-01-11T11:43:23;36.53;;;12.97;;
10389;SDS011;5241;47.830;12.972;2024-01-11T11:45:51;32.37;;;11.73;;
10389;SDS011;5241;47.830;12.972;2024-01-11T11:51:06;27.53;;;10.43;;
10389;SDS011;5241;47.830;12.972;2024-01-11T11:53:36;34.57;;;12.37;;
10389;SDS011;5241;47.830;12.972;2024-01-11T11:56:02;44.40;;;14.70;;
10389;SDS011;5241;47.830;12.972;2024-01-11T11:58:31;34.57;;;11.70;;
10389;SDS011;5241;47.830;12.972;2024-01-11T12:00:59;36.70;;;10.70;;
10389;SDS011;5241;47.830;12.972;2024-01-11T12:03:28;31.60;;;11.30;;
10389;SDS011;5241;47.830;12.972;2024-01-11T12:05:56;35.57;;;11.53;;
10389;SDS011;5241;47.830;12.972;2024-01-11T12:08:22;22.63;;;9.57;;
10389;SDS011;5241;47.830;12.972;2024-01-11T12:10:48;40.47;;;12.27;;
10389;SDS011;5241;47.830;12.972;2024-01-11T12:13:14;29.50;;;13.37;;
10389;SDS011;5241;47.830;12.972;2024-01-11T12:15:40;28.20;;;10.30;;
10389;SDS011;5241;47.830;12.972;2024-01-11T12:18:06;24.93;;;10.20;;
10389;SDS011;5241;47.830;12.972;2024-01-11T12:20:32;35.23;;;10.73;;
10389;SDS011;5241;47.830;12.972;2024-01-11T12:22:58;24.37;;;9.30;;
10389;SDS011;5241;47.830;12.972;2024-01-11T12:25:24;26.87;;;9.10;;
10389;SDS011;5241;47.830;12.972;2024-01-11T12:27:50;30.83;;;9.93;;
10389;SDS011;5241;47.830;12.972;2024-01-11T12:30:21;26.33;;;9.17;;
10389;SDS011;5241;47.830;12.972;2024-01-11T12:32:48;25.97;;;9.23;;
10389;SDS011;5241;47.830;12.972;2024-01-11T12:35:14;31.70;;;10.77;;
10389;SDS011;5241;47.830;12.972;2024-01-11T12:37:41;22.03;;;8.30;;
10389;SDS011;5241;47.830;12.972;2024-01-11T12:40:06;24.17;;;8.23;;
10389;SDS011;5241;47.830;12.972;2024-01-11T12:42:35;23.30;;;8.90;;
10389;SDS011;5241;47.830;12.972;2024-01-11T12:45:01;27.70;;;11.00;;
10389;SDS011;5241;47.830;12.972;2024-01-11T12:47:26;35.23;;;11.23;;
10389;SDS011;5241;47.830;12.972;2024-01-11T12:49:52;33.93;;;10.50;;
10389;SDS011;5241;47.830;12.972;2024-01-11T12:52:18;22.93;;;9.77;;
10389;SDS011;5241;47.830;12.972;2024-01-11T12:54:51;29.27;;;9.93;;
10389;SDS011;5241;47.830;12.972;2024-01-11T12:57:18;23.57;;;9.17;;
10389;SDS011;5241;47.830;12.972;2024-01-11T12:59:47;29.43;;;10.93;;
10389;SDS011;5241;47.830;12.972;2024-01-11T13:02:13;27.03;;;9.00;;
10389;SDS011;5241;47.830;12.972;2024-01-11T13:04:42;30.07;;;9.77;;
10389;SDS011;5241;47.830;12.972;2024-01-11T13:07:10;28.00;;;9.10;;
10389;SDS011;5241;47.830;12.972;2024-01-11T13:09:37;23.77;;;9.60;;
10389;SDS011;5241;47.830;12.972;2024-01-11T13:12:03;25.70;;;8.57;;
10389;SDS011;5241;47.830;12.972;2024-01-11T13:14:29;22.20;;;9.07;;
10389;SDS011;5241;47.830;12.972;2024-01-11T13:16:55;29.10;;;8.43;;
10389;SDS011;5241;47.830;12.972;2024-01-11T13:19:21;25.70;;;9.83;;
10389;SDS011;5241;47.830;12.972;2024-01-11T13:21:46;26.97;;;9.93;;
10389;SDS011;5241;47.830;12.972;2024-01-11T13:24:12;33.77;;;8.77;;
10389;SDS011;5241;47.830;12.972;2024-01-11T13:26:38;22.90;;;8.90;;
10389;SDS011;5241;47.830;12.972;2024-01-11T13:29:04;19.23;;;8.20;;
10389;SDS011;5241;47.830;12.972;2024-01-11T13:31:33;25.03;;;8.30;;
10389;SDS011;5241;47.830;12.972;2024-01-11T13:33:58;26.73;;;9.40;;
10389;SDS011;5241;47.830;12.972;2024-01-11T13:36:24;29.90;;;10.63;;
10389;SDS011;5241;47.830;12.972;2024-01-11T13:38:50;22.40;;;8.93;;
10389;SDS011;5241;47.830;12.972;2024-01-11T13:41:16;24.03;;;9.33;;
10389;SDS011;5241;47.830;12.972;2024-01-11T13:43:42;23.67;;;9.67;;
10389;SDS011;5241;47.830;12.972;2024-01-11T13:46:08;25.73;;;8.50;;
10389;SDS011;5241;47.830;12.972;2024-01-11T13:48:34;25.73;;;9.13;;
10389;SDS011;5241;47.830;12.972;2024-01-11T13:51:00;23.27;;;8.50;;
10389;SDS011;5241;47.830;12.972;2024-01-11T13:53:28;25.50;;;11.23;;
10389;SDS011;5241;47.830;12.972;2024-01-11T13:55:54;29.83;;;10.23;;
10389;SDS011;5241;47.830;12.972;2024-01-11T13:58:20;17.30;;;8.10;;
10389;SDS011;5241;47.830;12.972;2024-01-11T14:00:46;21.60;;;9.60;;
10389;SDS011;5241;47.830;12.972;2024-01-11T14:03:12;22.93;;;9.00;;
10389;SDS011;5241;47.830;12.972;2024-01-11T14:05:37;28.60;;;10.17;;
10389;SDS011;5241;47.830;12.972;2024-01-11T14:08:03;35.60;;;11.60;;
10389;SDS011;5241;47.830;12.972;2024-01-11T14:10:32;25.30;;;10.30;;
10389;SDS011;5241;47.830;12.972;2024-01-11T14:12:58;26.23;;;9.47;;
10389;SDS011;5241;47.830;12.972;2024-01-11T14:15:24;27.50;;;10.13;;
10389;SDS011;5241;47.830;12.972;2024-01-11T14:17:50;25.97;;;8.80;;
10389;SDS011;5241;47.830;12.972;2024-01-11T14:20:16;35.23;;;10.57;;
10389;SDS011;5241;47.830;12.972;2024-01-11T14:22:42;48.33;;;14.93;;
10389;SDS011;5241;47.830;12.972;2024-01-11T14:25:14;36.47;;;14.40;;
10389;SDS011;5241;47.830;12.972;2024-01-11T14:27:49;22.80;;;9.70;;
10389;SDS011;5241;47.830;12.972;2024-01-11T14:30:15;31.13;;;12.07;;